sensor_id;sensor_type;location;lat;lon;timestamp;temperature;humidity
4461;DHT22;2243;48.812;9.232;2023-04-03T00:01:58;5.10;99.90
4461;DHT22;2243;48.812;9.232;2023-04-03T00:04:29;5.00;99.90
4461;DHT22;2243;48.812;9.232;2023-04-03T00:07:00;5.00;99.90
4461;DHT22;2243;48.812;9.232;2023-04-03T00:09:31;5.10;99.90
4461;DHT22;2243;48.812;9.232;2023-04-03T00:12:02;5.00;99.90
4461;DHT22;2243;48.812;9.232;2023-04-03T00:14:33;5.10;99.90
4461;DHT22;2243;48.812;9.232;2023-04-03T00:17:04;5.00;99.90
4461;DHT22;2243;48.812;9.232;2023-04-03T00:19:36;4.90;99.90
4461;DHT22;2243;48.812;9.232;2023-04-03T00:22:07;5.00;99.90
4461;DHT22;2243;48.812;9.232;2023-04-03T00:24:37;5.00;99.90
4461;DHT22;2243;48.812;9.232;2023-04-03T00:27:08;5.00;99.90
4461;DHT22;2243;48.812;9.232;2023-04-03T00:29:39;4.90;99.90
4461;DHT22;2243;48.812;9.232;2023-04-03T00:32:10;4.90;99.90
4461;DHT22;2243;48.812;9.232;2023-04-03T00:34:41;5.00;99.90
4461;DHT22;2243;48.812;9.232;2023-04-03T00:37:12;5.00;99.90
4461;DHT22;2243;48.812;9.232;2023-04-03T00:39:43;5.00;99.90
4461;DHT22;2243;48.812;9.232;2023-04-03T00:42:14;5.00;99.90
4461;DHT22;2243;48.812;9.232;2023-04-03T00:47:17;5.10;99.90
4461;DHT22;2243;48.812;9.232;2023-04-03T00:49:49;5.10;99.90
4461;DHT22;2243;48.812;9.232;2023-04-03T00:52:23;5.20;99.90
4461;DHT22;2243;48.812;9.232;2023-04-03T00:54:59;5.20;99.90
4461;DHT22;2243;48.812;9.232;2023-04-03T00:57:33;5.20;99.90
4461;DHT22;2243;48.812;9.232;2023-04-03T01:00:09;5.20;99.90
4461;DHT22;2243;48.812;9.232;2023-04-03T01:02:44;5.10;99.90
4461;DHT22;2243;48.812;9.232;2023-04-03T01:05:16;5.10;99.90
4461;DHT22;2243;48.812;9.232;2023-04-03T01:07:49;5.10;99.90
4461;DHT22;2243;48.812;9.232;2023-04-03T01:10:21;5.00;99.90
4461;DHT22;2243;48.812;9.232;2023-04-03T01:12:52;5.00;99.90
4461;DHT22;2243;48.812;9.232;2023-04-03T01:15:26;5.00;99.90
4461;DHT22;2243;48.812;9.232;2023-04-03T01:17:59;5.00;99.90
4461;DHT22;2243;48.812;9.232;2023-04-03T01:20:36;5.00;99.90
4461;DHT22;2243;48.812;9.232;2023-04-03T01:26:33;4.90;99.90
4461;DHT22;2243;48.812;9.232;2023-04-03T01:29:04;5.00;99.90
4461;DHT22;2243;48.812;9.232;2023-04-03T01:31:51;5.00;99.90
4461;DHT22;2243;48.812;9.232;2023-04-03T01:34:27;5.00;99.90
4461;DHT22;2243;48.812;9.232;2023-04-03T01:36:59;5.10;99.90
4461;DHT22;2243;48.812;9.232;2023-04-03T01:39:30;5.00;99.90
4461;DHT22;2243;48.812;9.232;2023-04-03T01:42:01;5.10;99.90
4461;DHT22;2243;48.812;9.232;2023-04-03T01:44:32;5.10;99.90
4461;DHT22;2243;48.812;9.232;2023-04-03T01:47:05;5.20;99.90
4461;DHT22;2243;48.812;9.232;2023-04-03T01:49:37;5.20;99.90
4461;DHT22;2243;48.812;9.232;2023-04-03T01:52:08;5.30;99.90
4461;DHT22;2243;48.812;9.232;2023-04-03T01:54:39;5.00;99.90
4461;DHT22;2243;48.812;9.232;2023-04-03T01:57:09;4.90;99.90
4461;DHT22;2243;48.812;9.232;2023-04-03T01:59:41;4.90;99.90
4461;DHT22;2243;48.812;9.232;2023-04-03T02:02:12;5.00;99.90
4461;DHT22;2243;48.812;9.232;2023-04-03T02:04:45;4.90;99.90
4461;DHT22;2243;48.812;9.232;2023-04-03T02:07:16;4.90;99.90
4461;DHT22;2243;48.812;9.232;2023-04-03T02:09:46;4.90;99.90
4461;DHT22;2243;48.812;9.232;2023-04-03T02:12:17;4.90;99.90
4461;DHT22;2243;48.812;9.232;2023-04-03T02:14:48;5.00;99.90
4461;DHT22;2243;48.812;9.232;2023-04-03T02:17:19;5.00;99.90
4461;DHT22;2243;48.812;9.232;2023-04-03T02:19:50;4.90;99.90
4461;DHT22;2243;48.812;9.232;2023-04-03T02:22:21;5.00;99.90
4461;DHT22;2243;48.812;9.232;2023-04-03T02:24:52;5.00;99.90
4461;DHT22;2243;48.812;9.232;2023-04-03T02:27:23;5.00;99.90
4461;DHT22;2243;48.812;9.232;2023-04-03T02:29:54;5.00;99.90
4461;DHT22;2243;48.812;9.232;2023-04-03T02:32:25;5.00;99.90
4461;DHT22;2243;48.812;9.232;2023-04-03T02:34:56;4.90;99.90
4461;DHT22;2243;48.812;9.232;2023-04-03T02:37:27;4.90;99.90
4461;DHT22;2243;48.812;9.232;2023-04-03T02:39:59;4.90;99.90
4461;DHT22;2243;48.812;9.232;2023-04-03T02:42:30;4.90;99.90
4461;DHT22;2243;48.812;9.232;2023-04-03T02:45:01;5.00;99.90
4461;DHT22;2243;48.812;9.232;2023-04-03T02:47:32;4.80;99.90
4461;DHT22;2243;48.812;9.232;2023-04-03T02:50:03;4.80;99.90
4461;DHT22;2243;48.812;9.232;2023-04-03T02:52:35;4.80;99.90
4461;DHT22;2243;48.812;9.232;2023-04-03T02:55:06;4.90;99.90
4461;DHT22;2243;48.812;9.232;2023-04-03T02:57:37;4.90;99.90
4461;DHT22;2243;48.812;9.232;2023-04-03T03:00:08;4.90;99.90
4461;DHT22;2243;48.812;9.232;2023-04-03T03:02:40;4.90;99.90
4461;DHT22;2243;48.812;9.232;2023-04-03T03:05:11;4.90;99.90
4461;DHT22;2243;48.812;9.232;2023-04-03T03:07:42;4.90;99.90
4461;DHT22;2243;48.812;9.232;2023-04-03T03:10:13;4.90;99.90
4461;DHT22;2243;48.812;9.232;2023-04-03T03:12:45;5.00;99.90
4461;DHT22;2243;48.812;9.232;2023-04-03T03:15:16;5.10;99.90
4461;DHT22;2243;48.812;9.232;2023-04-03T03:17:47;5.00;99.90
4461;DHT22;2243;48.812;9.232;2023-04-03T03:20:18;5.00;99.90
4461;DHT22;2243;48.812;9.232;2023-04-03T03:22:49;5.00;99.90
4461;DHT22;2243;48.812;9.232;2023-04-03T03:25:20;5.00;99.90
4461;DHT22;2243;48.812;9.232;2023-04-03T03:27:51;5.00;99.90
4461;DHT22;2243;48.812;9.232;2023-04-03T03:30:22;5.00;99.90
4461;DHT22;2243;48.812;9.232;2023-04-03T03:32:53;5.00;99.90
4461;DHT22;2243;48.812;9.232;2023-04-03T03:35:24;5.00;99.90
4461;DHT22;2243;48.812;9.232;2023-04-03T03:37:55;5.00;99.90
4461;DHT22;2243;48.812;9.232;2023-04-03T03:40:26;4.90;99.90
4461;DHT22;2243;48.812;9.232;2023-04-03T03:42:57;5.00;99.90
4461;DHT22;2243;48.812;9.232;2023-04-03T03:45:28;5.10;99.90
4461;DHT22;2243;48.812;9.232;2023-04-03T03:47:59;5.10;99.90
4461;DHT22;2243;48.812;9.232;2023-04-03T03:50:30;5.00;99.90
4461;DHT22;2243;48.812;9.232;2023-04-03T03:53:01;5.00;99.90
4461;DHT22;2243;48.812;9.232;2023-04-03T03:55:32;5.00;99.90
4461;DHT22;2243;48.812;9.232;2023-04-03T03:58:03;5.10;99.90
4461;DHT22;2243;48.812;9.232;2023-04-03T04:00:34;5.10;99.90
4461;DHT22;2243;48.812;9.232;2023-04-03T04:03:05;5.10;99.90
4461;DHT22;2243;48.812;9.232;2023-04-03T04:05:36;5.20;99.90
4461;DHT22;2243;48.812;9.232;2023-04-03T04:08:07;5.20;99.90
4461;DHT22;2243;48.812;9.232;2023-04-03T04:10:38;5.30;99.90
4461;DHT22;2243;48.812;9.232;2023-04-03T04:13:09;5.30;99.90
4461;DHT22;2243;48.812;9.232;2023-04-03T04:15:40;5.30;99.90
4461;DHT22;2243;48.812;9.232;2023-04-03T04:18:11;5.30;99.90
4461;DHT22;2243;48.812;9.232;2023-04-03T04:20:45;5.30;99.90
4461;DHT22;2243;48.812;9.232;2023-04-03T04:23:17;5.30;99.90
4461;DHT22;2243;48.812;9.232;2023-04-03T04:25:49;5.40;99.90
4461;DHT22;2243;48.812;9.232;2023-04-03T04:28:20;5.40;99.90
4461;DHT22;2243;48.812;9.232;2023-04-03T04:30:51;5.40;99.90
4461;DHT22;2243;48.812;9.232;2023-04-03T04:33:22;5.40;99.90
4461;DHT22;2243;48.812;9.232;2023-04-03T04:35:53;5.50;99.90
4461;DHT22;2243;48.812;9.232;2023-04-03T04:38:24;5.70;99.90
4461;DHT22;2243;48.812;9.232;2023-04-03T04:40:55;5.70;99.90
4461;DHT22;2243;48.812;9.232;2023-04-03T04:43:26;5.70;99.90
4461;DHT22;2243;48.812;9.232;2023-04-03T04:46:08;5.40;99.90
4461;DHT22;2243;48.812;9.232;2023-04-03T04:48:40;5.30;99.90
4461;DHT22;2243;48.812;9.232;2023-04-03T04:51:12;5.30;99.90
4461;DHT22;2243;48.812;9.232;2023-04-03T04:53:42;5.30;99.90
4461;DHT22;2243;48.812;9.232;2023-04-03T04:56:13;5.20;99.90
4461;DHT22;2243;48.812;9.232;2023-04-03T04:58:44;5.20;99.90
4461;DHT22;2243;48.812;9.232;2023-04-03T05:01:15;5.20;99.90
4461;DHT22;2243;48.812;9.232;2023-04-03T05:03:46;5.20;99.90
4461;DHT22;2243;48.812;9.232;2023-04-03T05:06:18;5.20;99.90
4461;DHT22;2243;48.812;9.232;2023-04-03T05:08:49;5.20;99.90
4461;DHT22;2243;48.812;9.232;2023-04-03T05:11:20;5.30;99.90
4461;DHT22;2243;48.812;9.232;2023-04-03T05:13:54;5.30;99.90
4461;DHT22;2243;48.812;9.232;2023-04-03T05:16:25;5.30;99.90
4461;DHT22;2243;48.812;9.232;2023-04-03T05:18:56;5.30;99.90
4461;DHT22;2243;48.812;9.232;2023-04-03T05:21:27;5.00;99.90
4461;DHT22;2243;48.812;9.232;2023-04-03T05:24:03;5.10;99.90
4461;DHT22;2243;48.812;9.232;2023-04-03T05:26:34;5.10;99.90
4461;DHT22;2243;48.812;9.232;2023-04-03T05:29:05;5.00;99.90
4461;DHT22;2243;48.812;9.232;2023-04-03T05:31:36;4.90;99.90
4461;DHT22;2243;48.812;9.232;2023-04-03T05:34:07;4.80;99.90
4461;DHT22;2243;48.812;9.232;2023-04-03T05:36:38;4.90;99.90
4461;DHT22;2243;48.812;9.232;2023-04-03T05:39:09;4.90;99.90
4461;DHT22;2243;48.812;9.232;2023-04-03T05:41:40;4.90;99.90
4461;DHT22;2243;48.812;9.232;2023-04-03T05:44:11;5.00;99.90
4461;DHT22;2243;48.812;9.232;2023-04-03T05:46:42;5.00;99.90
4461;DHT22;2243;48.812;9.232;2023-04-03T05:49:13;5.00;99.90
4461;DHT22;2243;48.812;9.232;2023-04-03T05:51:44;5.00;99.90
4461;DHT22;2243;48.812;9.232;2023-04-03T05:54:22;5.10;99.90
4461;DHT22;2243;48.812;9.232;2023-04-03T05:56:54;5.20;99.90
4461;DHT22;2243;48.812;9.232;2023-04-03T05:59:25;5.00;99.90
4461;DHT22;2243;48.812;9.232;2023-04-03T06:01:56;5.00;99.90
4461;DHT22;2243;48.812;9.232;2023-04-03T06:04:28;5.00;99.90
4461;DHT22;2243;48.812;9.232;2023-04-03T06:06:59;5.10;99.90
4461;DHT22;2243;48.812;9.232;2023-04-03T06:09:30;5.00;99.90
4461;DHT22;2243;48.812;9.232;2023-04-03T06:12:01;5.00;99.90
4461;DHT22;2243;48.812;9.232;2023-04-03T06:14:32;5.00;99.90
4461;DHT22;2243;48.812;9.232;2023-04-03T06:17:03;4.90;99.90
4461;DHT22;2243;48.812;9.232;2023-04-03T06:19:35;5.10;99.90
4461;DHT22;2243;48.812;9.232;2023-04-03T06:22:07;5.20;99.90
4461;DHT22;2243;48.812;9.232;2023-04-03T06:24:38;5.10;99.90
4461;DHT22;2243;48.812;9.232;2023-04-03T06:27:10;5.10;99.90
4461;DHT22;2243;48.812;9.232;2023-04-03T06:29:41;5.10;99.90
4461;DHT22;2243;48.812;9.232;2023-04-03T06:32:12;5.10;99.90
4461;DHT22;2243;48.812;9.232;2023-04-03T06:34:44;5.10;99.90
4461;DHT22;2243;48.812;9.232;2023-04-03T06:37:18;5.00;99.90
4461;DHT22;2243;48.812;9.232;2023-04-03T06:39:52;5.00;99.90
4461;DHT22;2243;48.812;9.232;2023-04-03T06:42:23;5.10;99.90
4461;DHT22;2243;48.812;9.232;2023-04-03T06:44:54;5.10;99.90
4461;DHT22;2243;48.812;9.232;2023-04-03T06:47:25;4.90;99.90
4461;DHT22;2243;48.812;9.232;2023-04-03T06:49:56;5.00;99.90
4461;DHT22;2243;48.812;9.232;2023-04-03T06:52:28;5.10;99.90
4461;DHT22;2243;48.812;9.232;2023-04-03T06:54:59;5.00;99.90
4461;DHT22;2243;48.812;9.232;2023-04-03T06:57:30;4.90;99.90
4461;DHT22;2243;48.812;9.232;2023-04-03T07:00:03;4.90;99.90
4461;DHT22;2243;48.812;9.232;2023-04-03T07:02:36;5.00;99.90
4461;DHT22;2243;48.812;9.232;2023-04-03T07:05:07;5.00;99.90
4461;DHT22;2243;48.812;9.232;2023-04-03T07:07:39;5.00;99.90
4461;DHT22;2243;48.812;9.232;2023-04-03T07:10:11;5.00;99.90
4461;DHT22;2243;48.812;9.232;2023-04-03T07:12:43;5.10;99.90
4461;DHT22;2243;48.812;9.232;2023-04-03T07:15:14;5.10;99.90
4461;DHT22;2243;48.812;9.232;2023-04-03T07:17:45;5.00;99.90
4461;DHT22;2243;48.812;9.232;2023-04-03T07:20:16;5.20;99.90
4461;DHT22;2243;48.812;9.232;2023-04-03T07:22:47;5.20;99.90
4461;DHT22;2243;48.812;9.232;2023-04-03T07:25:18;5.30;99.90
4461;DHT22;2243;48.812;9.232;2023-04-03T07:27:49;5.30;99.90
4461;DHT22;2243;48.812;9.232;2023-04-03T07:30:20;5.20;99.90
4461;DHT22;2243;48.812;9.232;2023-04-03T07:32:52;5.30;99.90
4461;DHT22;2243;48.812;9.232;2023-04-03T07:35:23;5.40;99.90
4461;DHT22;2243;48.812;9.232;2023-04-03T07:37:54;5.30;99.90
4461;DHT22;2243;48.812;9.232;2023-04-03T07:40:25;5.30;99.90
4461;DHT22;2243;48.812;9.232;2023-04-03T07:42:56;5.40;99.90
4461;DHT22;2243;48.812;9.232;2023-04-03T07:45:28;5.60;99.90
4461;DHT22;2243;48.812;9.232;2023-04-03T07:48:00;5.50;99.90
4461;DHT22;2243;48.812;9.232;2023-04-03T07:50:31;5.60;99.90
4461;DHT22;2243;48.812;9.232;2023-04-03T07:53:03;5.60;99.90
4461;DHT22;2243;48.812;9.232;2023-04-03T07:55:34;5.60;99.90
4461;DHT22;2243;48.812;9.232;2023-04-03T07:58:12;5.60;99.90
4461;DHT22;2243;48.812;9.232;2023-04-03T08:00:45;5.60;99.90
4461;DHT22;2243;48.812;9.232;2023-04-03T08:03:16;5.80;99.90
4461;DHT22;2243;48.812;9.232;2023-04-03T08:05:49;5.80;99.90
4461;DHT22;2243;48.812;9.232;2023-04-03T08:08:22;5.90;99.90
4461;DHT22;2243;48.812;9.232;2023-04-03T08:10:54;5.90;99.90
4461;DHT22;2243;48.812;9.232;2023-04-03T08:13:25;5.90;99.90
4461;DHT22;2243;48.812;9.232;2023-04-03T08:15:56;5.70;99.90
4461;DHT22;2243;48.812;9.232;2023-04-03T08:18:28;5.70;99.90
4461;DHT22;2243;48.812;9.232;2023-04-03T08:20:59;5.80;99.90
4461;DHT22;2243;48.812;9.232;2023-04-03T08:23:30;5.80;99.90
4461;DHT22;2243;48.812;9.232;2023-04-03T08:26:09;5.80;99.90
4461;DHT22;2243;48.812;9.232;2023-04-03T08:28:41;5.90;99.90
4461;DHT22;2243;48.812;9.232;2023-04-03T08:31:16;6.10;99.90
4461;DHT22;2243;48.812;9.232;2023-04-03T08:33:49;6.10;99.90
4461;DHT22;2243;48.812;9.232;2023-04-03T08:36:26;6.00;99.90
4461;DHT22;2243;48.812;9.232;2023-04-03T08:38:58;6.00;99.90
4461;DHT22;2243;48.812;9.232;2023-04-03T08:41:34;6.10;99.90
4461;DHT22;2243;48.812;9.232;2023-04-03T08:44:26;6.00;99.90
4461;DHT22;2243;48.812;9.232;2023-04-03T08:50:02;6.10;99.90
4461;DHT22;2243;48.812;9.232;2023-04-03T08:52:47;6.10;99.90
4461;DHT22;2243;48.812;9.232;2023-04-03T08:55:37;6.20;99.90
4461;DHT22;2243;48.812;9.232;2023-04-03T08:58:22;6.10;99.90
4461;DHT22;2243;48.812;9.232;2023-04-03T09:01:02;6.10;99.90
4461;DHT22;2243;48.812;9.232;2023-04-03T09:03:38;6.30;99.90
4461;DHT22;2243;48.812;9.232;2023-04-03T09:06:17;6.50;99.90
4461;DHT22;2243;48.812;9.232;2023-04-03T09:09:11;6.70;99.90
4461;DHT22;2243;48.812;9.232;2023-04-03T09:12:34;6.70;99.90
4461;DHT22;2243;48.812;9.232;2023-04-03T09:15:21;6.50;99.90
4461;DHT22;2243;48.812;9.232;2023-04-03T09:18:26;6.50;99.90
4461;DHT22;2243;48.812;9.232;2023-04-03T09:21:19;6.70;99.90
4461;DHT22;2243;48.812;9.232;2023-04-03T09:23:56;6.80;99.90
4461;DHT22;2243;48.812;9.232;2023-04-03T09:26:34;6.60;99.90
4461;DHT22;2243;48.812;9.232;2023-04-03T09:29:08;6.70;99.90
4461;DHT22;2243;48.812;9.232;2023-04-03T09:31:42;6.80;99.90
4461;DHT22;2243;48.812;9.232;2023-04-03T09:34:24;6.80;99.90
4461;DHT22;2243;48.812;9.232;2023-04-03T09:36:59;6.90;99.90
4461;DHT22;2243;48.812;9.232;2023-04-03T09:39:51;6.70;99.90
4461;DHT22;2243;48.812;9.232;2023-04-03T09:42:27;6.60;99.90
4461;DHT22;2243;48.812;9.232;2023-04-03T09:45:04;6.70;99.90
4461;DHT22;2243;48.812;9.232;2023-04-03T09:47:36;6.70;99.90
4461;DHT22;2243;48.812;9.232;2023-04-03T09:52:49;7.00;99.90
4461;DHT22;2243;48.812;9.232;2023-04-03T09:55:24;7.10;99.90
4461;DHT22;2243;48.812;9.232;2023-04-03T09:58:04;6.80;99.90
4461;DHT22;2243;48.812;9.232;2023-04-03T10:00:39;6.80;99.90
4461;DHT22;2243;48.812;9.232;2023-04-03T10:03:29;6.80;99.90
4461;DHT22;2243;48.812;9.232;2023-04-03T10:06:04;6.90;99.90
4461;DHT22;2243;48.812;9.232;2023-04-03T10:09:02;7.00;99.90
4461;DHT22;2243;48.812;9.232;2023-04-03T10:11:35;7.20;99.90
4461;DHT22;2243;48.812;9.232;2023-04-03T10:14:16;7.30;99.90
4461;DHT22;2243;48.812;9.232;2023-04-03T10:16:53;7.20;99.90
4461;DHT22;2243;48.812;9.232;2023-04-03T10:23:02;7.00;99.90
4461;DHT22;2243;48.812;9.232;2023-04-03T10:35:11;7.10;99.90
4461;DHT22;2243;48.812;9.232;2023-04-03T10:48:02;7.00;99.90
4461;DHT22;2243;48.812;9.232;2023-04-03T11:01:52;7.20;99.40
4461;DHT22;2243;48.812;9.232;2023-04-03T11:04:28;7.30;98.40
4461;DHT22;2243;48.812;9.232;2023-04-03T11:07:20;7.40;97.90
4461;DHT22;2243;48.812;9.232;2023-04-03T11:10:13;7.40;97.80
4461;DHT22;2243;48.812;9.232;2023-04-03T11:12:59;7.60;98.10
4461;DHT22;2243;48.812;9.232;2023-04-03T11:15:37;7.70;97.50
4461;DHT22;2243;48.812;9.232;2023-04-03T11:18:14;7.90;97.00
4461;DHT22;2243;48.812;9.232;2023-04-03T11:21:07;7.60;97.10
4461;DHT22;2243;48.812;9.232;2023-04-03T11:23:42;7.60;97.20
4461;DHT22;2243;48.812;9.232;2023-04-03T11:26:22;7.60;97.70
4461;DHT22;2243;48.812;9.232;2023-04-03T11:29:03;7.60;98.00
4461;DHT22;2243;48.812;9.232;2023-04-03T11:34:41;7.30;97.70
4461;DHT22;2243;48.812;9.232;2023-04-03T11:40:00;7.40;98.00
4461;DHT22;2243;48.812;9.232;2023-04-03T11:42:37;7.60;97.90
4461;DHT22;2243;48.812;9.232;2023-04-03T11:48:01;7.40;98.10
4461;DHT22;2243;48.812;9.232;2023-04-03T11:50:53;7.30;98.20
4461;DHT22;2243;48.812;9.232;2023-04-03T11:53:28;7.40;97.90
4461;DHT22;2243;48.812;9.232;2023-04-03T12:01:53;7.80;97.30
4461;DHT22;2243;48.812;9.232;2023-04-03T12:04:28;7.80;97.50
4461;DHT22;2243;48.812;9.232;2023-04-03T12:07:33;7.60;97.70
4461;DHT22;2243;48.812;9.232;2023-04-03T12:10:15;7.30;97.30
4461;DHT22;2243;48.812;9.232;2023-04-03T12:13:11;7.30;97.50
4461;DHT22;2243;48.812;9.232;2023-04-03T12:15:51;7.40;97.20
4461;DHT22;2243;48.812;9.232;2023-04-03T12:18:44;7.40;97.20
4461;DHT22;2243;48.812;9.232;2023-04-03T12:26:51;7.60;97.10
4461;DHT22;2243;48.812;9.232;2023-04-03T12:32:57;7.90;96.50
4461;DHT22;2243;48.812;9.232;2023-04-03T12:36:06;7.70;95.80
4461;DHT22;2243;48.812;9.232;2023-04-03T12:39:00;7.60;96.30
4461;DHT22;2243;48.812;9.232;2023-04-03T12:41:54;7.60;96.20
4461;DHT22;2243;48.812;9.232;2023-04-03T12:45:07;7.60;96.00
4461;DHT22;2243;48.812;9.232;2023-04-03T12:47:56;7.50;96.00
4461;DHT22;2243;48.812;9.232;2023-04-03T12:50:29;7.60;96.00
4461;DHT22;2243;48.812;9.232;2023-04-03T12:53:11;7.70;95.90
4461;DHT22;2243;48.812;9.232;2023-04-03T12:55:44;7.70;95.70
4461;DHT22;2243;48.812;9.232;2023-04-03T12:58:28;7.80;95.60
4461;DHT22;2243;48.812;9.232;2023-04-03T13:01:14;7.70;95.70
4461;DHT22;2243;48.812;9.232;2023-04-03T13:03:52;7.80;95.30
4461;DHT22;2243;48.812;9.232;2023-04-03T13:06:34;7.80;95.20
4461;DHT22;2243;48.812;9.232;2023-04-03T13:09:27;7.90;95.30
4461;DHT22;2243;48.812;9.232;2023-04-03T13:12:14;8.10;95.10
4461;DHT22;2243;48.812;9.232;2023-04-03T13:15:12;8.10;95.10
4461;DHT22;2243;48.812;9.232;2023-04-03T13:17:46;8.30;94.60
4461;DHT22;2243;48.812;9.232;2023-04-03T13:20:34;8.10;94.70
4461;DHT22;2243;48.812;9.232;2023-04-03T13:23:08;8.10;95.10
4461;DHT22;2243;48.812;9.232;2023-04-03T13:25:43;8.00;95.20
4461;DHT22;2243;48.812;9.232;2023-04-03T13:28:19;8.00;94.60
4461;DHT22;2243;48.812;9.232;2023-04-03T13:31:21;7.80;93.90
4461;DHT22;2243;48.812;9.232;2023-04-03T13:36:45;8.00;94.10
4461;DHT22;2243;48.812;9.232;2023-04-03T13:39:31;8.10;93.80
4461;DHT22;2243;48.812;9.232;2023-04-03T13:42:25;8.10;93.50
4461;DHT22;2243;48.812;9.232;2023-04-03T13:45:22;8.10;92.50
4461;DHT22;2243;48.812;9.232;2023-04-03T13:48:19;8.30;93.40
4461;DHT22;2243;48.812;9.232;2023-04-03T13:51:13;8.30;92.70
4461;DHT22;2243;48.812;9.232;2023-04-03T13:53:52;8.30;93.20
4461;DHT22;2243;48.812;9.232;2023-04-03T13:56:34;8.30;92.90
4461;DHT22;2243;48.812;9.232;2023-04-03T14:04:56;8.20;93.60
4461;DHT22;2243;48.812;9.232;2023-04-03T14:07:30;8.10;93.30
4461;DHT22;2243;48.812;9.232;2023-04-03T14:10:03;8.10;93.40
4461;DHT22;2243;48.812;9.232;2023-04-03T14:12:38;8.10;93.20
4461;DHT22;2243;48.812;9.232;2023-04-03T14:15:23;8.10;93.00
4461;DHT22;2243;48.812;9.232;2023-04-03T14:17:55;8.10;93.20
4461;DHT22;2243;48.812;9.232;2023-04-03T14:20:29;8.10;93.00
4461;DHT22;2243;48.812;9.232;2023-04-03T14:23:00;8.20;93.40
4461;DHT22;2243;48.812;9.232;2023-04-03T14:25:31;8.30;93.00
4461;DHT22;2243;48.812;9.232;2023-04-03T14:28:18;8.20;93.20
4461;DHT22;2243;48.812;9.232;2023-04-03T14:30:51;8.40;93.10
4461;DHT22;2243;48.812;9.232;2023-04-03T14:33:22;8.50;92.70
4461;DHT22;2243;48.812;9.232;2023-04-03T14:35:54;8.60;92.70
4461;DHT22;2243;48.812;9.232;2023-04-03T14:38:29;9.00;91.70
4461;DHT22;2243;48.812;9.232;2023-04-03T14:41:01;9.30;90.80
4461;DHT22;2243;48.812;9.232;2023-04-03T14:43:44;9.10;91.10
4461;DHT22;2243;48.812;9.232;2023-04-03T14:46:32;9.00;91.20
4461;DHT22;2243;48.812;9.232;2023-04-03T14:49:28;8.90;91.20
4461;DHT22;2243;48.812;9.232;2023-04-03T14:52:00;8.80;91.10
4461;DHT22;2243;48.812;9.232;2023-04-03T14:54:31;8.80;91.50
4461;DHT22;2243;48.812;9.232;2023-04-03T14:57:03;8.60;91.10
4461;DHT22;2243;48.812;9.232;2023-04-03T14:59:36;8.70;90.90
4461;DHT22;2243;48.812;9.232;2023-04-03T15:02:30;8.50;90.90
4461;DHT22;2243;48.812;9.232;2023-04-03T15:05:08;8.50;91.40
4461;DHT22;2243;48.812;9.232;2023-04-03T15:07:53;8.70;91.00
4461;DHT22;2243;48.812;9.232;2023-04-03T15:10:27;8.80;91.00
4461;DHT22;2243;48.812;9.232;2023-04-03T15:12:59;8.90;90.50
4461;DHT22;2243;48.812;9.232;2023-04-03T15:15:31;8.90;89.40
4461;DHT22;2243;48.812;9.232;2023-04-03T15:18:02;9.10;89.30
4461;DHT22;2243;48.812;9.232;2023-04-03T15:20:33;9.40;89.40
4461;DHT22;2243;48.812;9.232;2023-04-03T15:23:04;9.30;88.60
4461;DHT22;2243;48.812;9.232;2023-04-03T15:25:35;9.40;88.60
4461;DHT22;2243;48.812;9.232;2023-04-03T15:28:09;9.10;88.60
4461;DHT22;2243;48.812;9.232;2023-04-03T15:30:46;9.00;89.40
4461;DHT22;2243;48.812;9.232;2023-04-03T15:33:17;8.80;89.20
4461;DHT22;2243;48.812;9.232;2023-04-03T15:35:48;8.70;90.30
4461;DHT22;2243;48.812;9.232;2023-04-03T15:38:19;8.70;90.20
4461;DHT22;2243;48.812;9.232;2023-04-03T15:40:50;8.80;90.90
4461;DHT22;2243;48.812;9.232;2023-04-03T15:43:22;8.60;89.40
4461;DHT22;2243;48.812;9.232;2023-04-03T15:45:57;8.50;89.00
4461;DHT22;2243;48.812;9.232;2023-04-03T15:48:30;8.60;88.20
4461;DHT22;2243;48.812;9.232;2023-04-03T15:51:01;8.80;88.30
4461;DHT22;2243;48.812;9.232;2023-04-03T15:53:32;9.10;87.90
4461;DHT22;2243;48.812;9.232;2023-04-03T15:56:03;9.30;88.30
4461;DHT22;2243;48.812;9.232;2023-04-03T15:58:35;9.40;87.00
4461;DHT22;2243;48.812;9.232;2023-04-03T16:01:06;9.70;86.50
4461;DHT22;2243;48.812;9.232;2023-04-03T16:03:40;10.10;85.30
4461;DHT22;2243;48.812;9.232;2023-04-03T16:06:17;10.40;85.10
4461;DHT22;2243;48.812;9.232;2023-04-03T16:08:49;10.60;84.10
4461;DHT22;2243;48.812;9.232;2023-04-03T16:11:20;10.50;82.50
4461;DHT22;2243;48.812;9.232;2023-04-03T16:13:51;10.40;82.00
4461;DHT22;2243;48.812;9.232;2023-04-03T16:16:23;10.30;82.40
4461;DHT22;2243;48.812;9.232;2023-04-03T16:18:56;9.90;83.30
4461;DHT22;2243;48.812;9.232;2023-04-03T16:21:28;9.60;83.10
4461;DHT22;2243;48.812;9.232;2023-04-03T16:24:00;9.30;84.60
4461;DHT22;2243;48.812;9.232;2023-04-03T16:26:32;9.10;86.30
4461;DHT22;2243;48.812;9.232;2023-04-03T16:29:03;9.10;86.70
4461;DHT22;2243;48.812;9.232;2023-04-03T16:31:34;9.20;86.40
4461;DHT22;2243;48.812;9.232;2023-04-03T16:34:05;9.60;85.70
4461;DHT22;2243;48.812;9.232;2023-04-03T16:36:36;10.10;84.40
4461;DHT22;2243;48.812;9.232;2023-04-03T16:39:08;10.40;83.20
4461;DHT22;2243;48.812;9.232;2023-04-03T16:41:41;10.70;83.10
4461;DHT22;2243;48.812;9.232;2023-04-03T16:44:11;10.90;81.90
4461;DHT22;2243;48.812;9.232;2023-04-03T16:46:43;10.70;82.30
4461;DHT22;2243;48.812;9.232;2023-04-03T16:49:17;10.80;81.70
4461;DHT22;2243;48.812;9.232;2023-04-03T16:51:48;10.70;81.40
4461;DHT22;2243;48.812;9.232;2023-04-03T16:54:19;10.60;81.50
4461;DHT22;2243;48.812;9.232;2023-04-03T16:56:50;10.60;81.60
4461;DHT22;2243;48.812;9.232;2023-04-03T16:59:22;10.40;81.10
4461;DHT22;2243;48.812;9.232;2023-04-03T17:01:53;10.40;81.30
4461;DHT22;2243;48.812;9.232;2023-04-03T17:04:24;10.10;80.40
4461;DHT22;2243;48.812;9.232;2023-04-03T17:06:55;10.00;81.90
4461;DHT22;2243;48.812;9.232;2023-04-03T17:09:27;10.30;80.60
4461;DHT22;2243;48.812;9.232;2023-04-03T17:11:58;10.10;81.80
4461;DHT22;2243;48.812;9.232;2023-04-03T17:14:29;10.20;82.20
4461;DHT22;2243;48.812;9.232;2023-04-03T17:17:01;10.20;82.20
4461;DHT22;2243;48.812;9.232;2023-04-03T17:19:34;10.00;82.70
4461;DHT22;2243;48.812;9.232;2023-04-03T17:22:07;9.80;91.20
4461;DHT22;2243;48.812;9.232;2023-04-03T17:24:39;9.50;83.20
4461;DHT22;2243;48.812;9.232;2023-04-03T17:27:10;9.60;83.10
4461;DHT22;2243;48.812;9.232;2023-04-03T17:29:41;9.30;83.70
4461;DHT22;2243;48.812;9.232;2023-04-03T17:32:12;9.10;84.60
4461;DHT22;2243;48.812;9.232;2023-04-03T17:34:45;8.70;85.00
4461;DHT22;2243;48.812;9.232;2023-04-03T17:37:17;8.60;86.00
4461;DHT22;2243;48.812;9.232;2023-04-03T17:39:48;8.60;85.60
4461;DHT22;2243;48.812;9.232;2023-04-03T17:42:19;8.30;86.60
4461;DHT22;2243;48.812;9.232;2023-04-03T17:44:50;8.30;87.10
4461;DHT22;2243;48.812;9.232;2023-04-03T17:47:21;8.10;87.60
4461;DHT22;2243;48.812;9.232;2023-04-03T17:49:52;8.00;87.70
4461;DHT22;2243;48.812;9.232;2023-04-03T17:52:23;7.90;88.20
4461;DHT22;2243;48.812;9.232;2023-04-03T17:54:57;7.70;88.30
4461;DHT22;2243;48.812;9.232;2023-04-03T17:57:29;7.50;88.50
4461;DHT22;2243;48.812;9.232;2023-04-03T18:00:01;7.50;88.60
4461;DHT22;2243;48.812;9.232;2023-04-03T18:02:34;7.40;89.10
4461;DHT22;2243;48.812;9.232;2023-04-03T18:05:05;7.30;88.80
4461;DHT22;2243;48.812;9.232;2023-04-03T18:07:39;7.30;88.90
4461;DHT22;2243;48.812;9.232;2023-04-03T18:10:10;7.20;89.00
4461;DHT22;2243;48.812;9.232;2023-04-03T18:12:42;7.20;89.10
4461;DHT22;2243;48.812;9.232;2023-04-03T18:15:13;7.10;89.60
4461;DHT22;2243;48.812;9.232;2023-04-03T18:17:44;7.10;89.30
4461;DHT22;2243;48.812;9.232;2023-04-03T18:20:16;7.10;89.70
4461;DHT22;2243;48.812;9.232;2023-04-03T18:22:47;7.10;90.10
4461;DHT22;2243;48.812;9.232;2023-04-03T18:25:19;7.00;90.10